createdAt,value
2019-04-05T00:01:31.735Z,8.14
2019-04-05T00:04:03.264Z,8.59
2019-04-05T00:06:32.367Z,8.36
2019-04-05T00:09:01.435Z,8.38
2019-04-05T00:11:32.290Z,8.23
2019-04-05T00:14:03.379Z,8.03
2019-04-05T00:16:32.543Z,8.63
2019-04-05T00:19:01.627Z,8.35
2019-04-05T00:21:30.704Z,8.75
2019-04-05T00:23:59.784Z,9.20
2019-04-05T00:26:29.009Z,9.36
2019-04-05T00:28:59.291Z,8.79
2019-04-05T00:31:28.804Z,8.54
2019-04-05T00:33:58.268Z,8.35
2019-04-05T00:36:32.864Z,8.41
2019-04-05T00:39:01.986Z,8.76
2019-04-05T00:41:33.017Z,8.60
2019-04-05T00:44:04.266Z,8.88
2019-04-05T00:46:33.327Z,8.79
2019-04-05T00:49:02.401Z,9.04
2019-04-05T00:51:31.545Z,8.94
2019-04-05T00:54:01.243Z,8.57
2019-04-05T00:56:36.104Z,8.77
2019-04-05T00:59:06.837Z,8.56
2019-04-05T01:01:38.908Z,8.72
2019-04-05T01:04:09.087Z,8.42
2019-04-05T01:06:38.311Z,8.22
2019-04-05T01:09:08.388Z,8.48
2019-04-05T01:11:40.551Z,8.46
2019-04-05T01:14:18.081Z,8.79
2019-04-05T01:16:50.558Z,8.45
2019-04-05T01:19:31.105Z,8.01
2019-04-05T01:22:01.654Z,8.33
2019-04-05T01:24:53.952Z,8.42
2019-04-05T01:27:28.093Z,8.44
2019-04-05T01:30:00.632Z,8.63
2019-04-05T01:32:29.782Z,9.06
2019-04-05T01:34:59.950Z,8.77
2019-04-05T01:37:29.014Z,9.00
2019-04-05T01:40:01.666Z,8.88
2019-04-05T01:42:33.679Z,8.94
2019-04-05T01:45:09.035Z,9.42
2019-04-05T01:47:39.233Z,9.61
2019-04-05T01:50:09.103Z,9.12
2019-04-05T01:52:44.300Z,8.96
2019-04-05T01:55:14.957Z,9.04
2019-04-05T01:57:44.107Z,8.98
2019-04-05T02:00:13.719Z,8.39
2019-04-05T02:02:49.737Z,8.86
2019-04-05T02:05:21.567Z,8.85
2019-04-05T02:07:50.926Z,8.75
2019-04-05T02:10:20.126Z,8.60
2019-04-05T02:12:53.708Z,8.10
2019-04-05T02:15:32.569Z,8.19
2019-04-05T02:18:01.634Z,8.36
2019-04-05T02:20:30.714Z,8.66
2019-04-05T02:23:01.068Z,8.25
2019-04-05T02:25:31.523Z,8.32
2019-04-05T02:28:01.784Z,6.31
2019-04-05T02:30:32.108Z,8.25
2019-04-05T02:33:02.209Z,8.17
2019-04-05T02:35:38.979Z,8.03
2019-04-05T02:38:09.613Z,7.63
2019-04-05T02:40:41.326Z,7.44
2019-04-05T02:43:14.820Z,7.86
2019-04-05T02:45:47.653Z,8.08
2019-04-05T02:48:18.250Z,8.34
2019-04-05T02:50:50.075Z,8.15
2019-04-05T02:53:22.705Z,7.77
2019-04-05T02:55:57.519Z,7.79
2019-04-05T02:58:29.067Z,8.27
2019-04-05T03:00:59.822Z,8.30
2019-04-05T03:03:32.771Z,8.71
2019-04-05T03:06:01.850Z,8.21
2019-04-05T03:08:32.033Z,8.68
2019-04-05T03:11:07.563Z,9.17
2019-04-05T03:13:42.837Z,9.19
2019-04-05T03:16:19.439Z,9.17
2019-04-05T03:18:54.387Z,8.75
2019-04-05T03:21:25.101Z,9.54
2019-04-05T03:23:59.011Z,9.06
2019-04-05T03:26:31.763Z,9.00
2019-04-05T03:29:09.339Z,8.77
2019-04-05T03:31:38.709Z,8.81
2019-04-05T03:34:29.949Z,9.41
2019-04-05T03:37:03.578Z,8.86
2019-04-05T03:39:33.073Z,9.24
2019-04-05T03:42:05.132Z,9.07
2019-04-05T03:44:34.409Z,9.12
2019-04-05T03:47:08.714Z,8.88
2019-04-05T03:49:37.821Z,8.50
2019-04-05T03:52:07.546Z,8.31
2019-04-05T03:54:38.272Z,9.23
2019-04-05T03:57:10.169Z,8.64
2019-04-05T03:59:39.553Z,8.65
2019-04-05T04:02:08.724Z,8.29
2019-04-05T04:04:37.941Z,8.20
2019-04-05T04:07:09.815Z,9.09
2019-04-05T04:09:40.389Z,9.28
2019-04-05T04:12:13.263Z,8.89
2019-04-05T04:14:47.068Z,8.76
2019-04-05T04:17:22.280Z,8.91
2019-04-05T04:19:56.838Z,9.32
2019-04-05T04:22:30.516Z,8.86
2019-04-05T04:25:04.596Z,9.25
2019-04-05T04:27:38.195Z,0.15
2019-04-05T04:30:07.821Z,8.89
2019-04-05T04:32:37.335Z,9.25
2019-04-05T04:35:22.032Z,9.54
2019-04-05T04:37:52.935Z,8.97
2019-04-05T04:40:22.066Z,9.39
2019-04-05T04:42:55.863Z,9.46
2019-04-05T04:45:27.973Z,9.90
2019-04-05T04:48:06.663Z,10.04
2019-04-05T04:50:39.167Z,10.19
2019-04-05T04:53:08.461Z,9.28
2019-04-05T04:55:41.932Z,9.59
2019-04-05T04:58:16.935Z,10.06
2019-04-05T05:00:48.108Z,9.84
2019-04-05T05:03:24.407Z,10.17
2019-04-05T05:06:00.105Z,9.89
2019-04-05T05:08:29.816Z,9.67
2019-04-05T05:10:59.045Z,10.08
2019-04-05T05:13:28.161Z,9.89
2019-04-05T05:15:57.430Z,10.40
2019-04-05T05:18:33.525Z,10.58
2019-04-05T05:21:05.632Z,10.45
2019-04-05T05:23:37.170Z,10.14
2019-04-05T05:26:06.444Z,9.82
2019-04-05T05:28:35.620Z,10.43
2019-04-05T05:31:12.209Z,10.12
2019-04-05T05:33:41.361Z,10.05
2019-04-05T05:36:12.440Z,9.87
2019-04-05T05:38:42.021Z,10.09
2019-04-05T05:41:13.190Z,10.52
2019-04-05T05:43:42.408Z,10.53
2019-04-05T05:46:11.671Z,9.67
2019-04-05T05:48:42.178Z,10.38
2019-04-05T05:51:11.544Z,9.84
2019-04-05T05:53:41.064Z,9.84
2019-04-05T05:56:11.626Z,9.76
2019-04-05T05:58:48.924Z,9.38
2019-04-05T06:01:18.281Z,10.08
2019-04-05T06:03:47.537Z,10.12
2019-04-05T06:06:41.657Z,10.33
2019-04-05T06:09:10.790Z,10.42
2019-04-05T06:11:46.258Z,9.53
2019-04-05T06:14:15.437Z,9.78
2019-04-05T06:16:46.510Z,8.49
2019-04-05T06:19:18.820Z,9.23
2019-04-05T06:21:49.249Z,9.21
2019-04-05T06:24:18.397Z,10.15
2019-04-05T06:26:47.808Z,10.05
2019-04-05T06:29:18.727Z,8.09
2019-04-05T06:31:48.263Z,9.55
2019-04-05T06:34:22.199Z,8.47
2019-04-05T06:36:53.233Z,8.18
2019-04-05T06:39:23.510Z,8.81
2019-04-05T06:41:54.371Z,8.95
2019-04-05T06:44:28.130Z,8.19
2019-04-05T06:46:57.258Z,8.06
2019-04-05T06:49:26.455Z,8.20
2019-04-05T06:51:55.592Z,9.15
2019-04-05T06:54:24.667Z,8.78
2019-04-05T06:56:59.349Z,9.20
2019-04-05T06:59:28.524Z,9.15
2019-04-05T07:01:57.633Z,9.33
2019-04-05T07:04:27.082Z,8.91
2019-04-05T07:06:56.456Z,9.40
2019-04-05T07:09:34.103Z,9.85
2019-04-05T07:12:11.848Z,9.57
2019-04-05T07:14:40.911Z,10.00
2019-04-05T07:17:10.050Z,10.13
2019-04-05T07:19:39.388Z,9.98
2019-04-05T07:22:09.834Z,9.98
2019-04-05T07:24:38.939Z,10.35
2019-04-05T07:27:14.041Z,10.32
2019-04-05T07:29:46.287Z,10.60
2019-04-05T07:32:15.398Z,10.40
2019-04-05T07:34:46.047Z,1.28
2019-04-05T07:37:15.427Z,10.73
2019-04-05T07:39:44.569Z,10.44
2019-04-05T07:42:13.669Z,10.72
2019-04-05T07:44:44.475Z,10.94
2019-04-05T07:47:19.027Z,10.50
2019-04-05T07:49:49.803Z,10.03
2019-04-05T07:52:18.937Z,10.04
2019-04-05T07:54:48.021Z,9.92
2019-04-05T07:57:17.226Z,9.96
2019-04-05T07:59:51.742Z,9.94
2019-04-05T08:02:21.261Z,10.10
2019-04-05T08:04:54.596Z,10.20
2019-04-05T08:07:21.504Z,10.36
2019-04-05T08:09:51.190Z,10.46
2019-04-05T08:12:20.623Z,10.41
2019-04-05T08:14:55.642Z,2.41
2019-04-05T08:17:28.529Z,10.65
2019-04-05T08:19:58.074Z,10.46
2019-04-05T08:22:32.321Z,10.61
2019-04-05T08:25:04.872Z,10.87
2019-04-05T08:27:34.008Z,10.89
2019-04-05T08:30:03.077Z,11.04
2019-04-05T08:32:36.109Z,10.95
2019-04-05T08:35:08.129Z,10.98
2019-04-05T08:37:38.554Z,10.92
2019-04-05T08:40:08.280Z,10.72
2019-04-05T08:42:37.399Z,10.60
2019-04-05T08:45:11.589Z,10.38
2019-04-05T08:47:46.148Z,10.43
2019-04-05T08:50:15.370Z,10.36
2019-04-05T08:52:47.397Z,10.37
2019-04-05T08:55:16.982Z,10.79
2019-04-05T08:57:48.089Z,10.29
2019-04-05T09:00:17.412Z,10.28
2019-04-05T09:02:49.827Z,10.39
2019-04-05T09:05:20.196Z,10.25
2019-04-05T09:07:50.260Z,10.18
2019-04-05T09:10:25.665Z,10.30
2019-04-05T09:12:55.294Z,10.42
2019-04-05T09:15:29.695Z,10.71
2019-04-05T09:18:11.025Z,10.49
2019-04-05T09:20:40.265Z,10.72
2019-04-05T09:23:15.224Z,10.68
2019-04-05T09:25:47.587Z,10.76
2019-04-05T09:28:18.216Z,10.65
2019-04-05T09:30:47.416Z,10.63
2019-04-05T09:33:18.313Z,10.49
2019-04-05T09:35:50.261Z,10.47
2019-04-05T09:38:24.587Z,10.75
2019-04-05T09:40:54.465Z,10.44
2019-04-05T09:43:24.957Z,10.31
2019-04-05T09:45:54.053Z,10.47
2019-04-05T09:48:27.249Z,10.77
2019-04-05T09:50:56.528Z,10.81
2019-04-05T09:53:25.950Z,10.77
2019-04-05T09:55:55.022Z,10.72
2019-04-05T09:58:24.146Z,11.04
2019-04-05T10:00:55.154Z,10.96
2019-04-05T10:03:26.334Z,11.27
2019-04-05T10:05:55.980Z,11.15
2019-04-05T10:08:25.310Z,11.52
2019-04-05T10:10:54.990Z,11.69
2019-04-05T10:13:26.640Z,11.83
2019-04-05T10:15:57.429Z,12.18
2019-04-05T10:18:27.003Z,11.76
2019-04-05T10:20:56.873Z,11.60
2019-04-05T10:23:31.400Z,11.62
2019-04-05T10:26:20.212Z,11.46
2019-04-05T10:28:38.901Z,11.58
2019-04-05T10:31:08.359Z,11.06
2019-04-05T10:33:37.926Z,11.05
2019-04-05T10:36:07.514Z,11.27
2019-04-05T10:38:38.004Z,11.55
2019-04-05T10:41:07.204Z,11.79
2019-04-05T10:43:41.172Z,11.47
2019-04-05T10:46:12.721Z,11.26
2019-04-05T10:48:44.321Z,11.84
2019-04-05T10:51:15.401Z,11.60
2019-04-05T10:53:44.895Z,11.38
2019-04-05T10:56:14.008Z,10.89
2019-04-05T10:58:45.967Z,11.03
2019-04-05T11:01:19.671Z,11.12
2019-04-05T11:03:50.304Z,11.19
2019-04-05T11:06:21.769Z,11.07
2019-04-05T11:08:51.863Z,9.28
2019-04-05T11:11:20.990Z,10.78
2019-04-05T11:13:51.441Z,10.94
2019-04-05T11:16:22.259Z,11.20
2019-04-05T11:18:53.028Z,11.08
2019-04-05T11:21:22.170Z,10.82
2019-04-05T11:23:51.200Z,10.77
2019-04-05T11:26:20.336Z,10.74
2019-04-05T11:28:53.358Z,10.63
2019-04-05T11:31:22.443Z,10.88
2019-04-05T11:33:51.998Z,10.93
2019-04-05T11:36:21.821Z,10.89
2019-04-05T11:38:55.463Z,10.95
2019-04-05T11:41:25.985Z,10.96
2019-04-05T11:43:58.495Z,11.03
2019-04-05T11:46:29.017Z,10.88
2019-04-05T11:49:06.558Z,11.37
2019-04-05T11:51:36.143Z,10.96
2019-04-05T11:54:06.881Z,10.74
2019-04-05T11:56:37.887Z,10.64
2019-04-05T11:59:15.543Z,10.84
2019-04-05T12:01:58.142Z,10.91
2019-04-05T12:04:27.269Z,10.73
2019-04-05T12:06:56.392Z,11.15
2019-04-05T12:09:25.532Z,10.73
2019-04-05T12:11:57.184Z,10.75
2019-04-05T12:14:30.712Z,10.96
2019-04-05T12:17:00.292Z,11.00
2019-04-05T12:19:29.544Z,11.26
2019-04-05T12:21:59.757Z,11.10
2019-04-05T12:24:32.626Z,3.45
2019-04-05T12:27:00.010Z,10.93
2019-04-05T12:29:34.581Z,2.01
2019-04-05T12:32:03.829Z,10.70
2019-04-05T12:34:33.238Z,10.95
2019-04-05T12:37:03.516Z,10.91
2019-04-05T12:39:36.373Z,10.72
2019-04-05T12:42:05.177Z,10.94
2019-04-05T12:44:35.517Z,10.84
2019-04-05T12:47:06.024Z,11.00
2019-04-05T12:49:39.336Z,10.84
2019-04-05T12:52:21.577Z,10.58
2019-04-05T12:54:43.462Z,10.70
2019-04-05T12:57:12.582Z,10.74
2019-04-05T12:59:41.982Z,10.80
2019-04-05T13:02:11.566Z,10.84
2019-04-05T13:04:40.723Z,11.02
2019-04-05T13:07:09.993Z,11.16
2019-04-05T13:09:39.091Z,11.14
2019-04-05T13:12:13.343Z,11.21
2019-04-05T13:14:42.481Z,11.07
2019-04-05T13:17:17.029Z,10.99
2019-04-05T13:19:46.396Z,11.01
2019-04-05T13:22:22.829Z,11.01
2019-04-05T13:24:51.456Z,10.84
2019-04-05T13:27:20.989Z,11.20
2019-04-05T13:29:56.284Z,11.02
2019-04-05T13:32:25.451Z,10.76
2019-04-05T13:34:55.866Z,10.63
2019-04-05T13:37:25.687Z,10.57
2019-04-05T13:39:57.629Z,10.90
2019-04-05T13:42:31.227Z,11.06
2019-04-05T13:45:00.216Z,11.01
2019-04-05T13:47:29.238Z,10.82
2019-04-05T13:50:00.139Z,11.00
2019-04-05T13:52:29.338Z,10.91
2019-04-05T13:55:03.210Z,10.75
2019-04-05T13:57:32.524Z,10.93
2019-04-05T14:00:03.430Z,11.20
2019-04-05T14:02:32.900Z,11.37
2019-04-05T14:05:06.691Z,11.18
2019-04-05T14:07:36.259Z,11.07
2019-04-05T14:10:15.465Z,11.18
2019-04-05T14:12:46.002Z,10.88
2019-04-05T14:15:18.554Z,10.93
2019-04-05T14:17:49.238Z,10.75
2019-04-05T14:20:24.585Z,10.60
2019-04-05T14:22:53.685Z,10.49
2019-04-05T14:25:26.070Z,10.53
2019-04-05T14:27:53.778Z,10.83
2019-04-05T14:30:22.914Z,10.69
2019-04-05T14:32:55.417Z,10.62
2019-04-05T14:35:25.985Z,10.69
2019-04-05T14:37:55.922Z,10.86
2019-04-05T14:40:30.362Z,10.79
2019-04-05T14:42:59.246Z,10.89
2019-04-05T14:45:28.393Z,10.63
2019-04-05T14:47:58.468Z,10.63
2019-04-05T14:50:29.084Z,10.76
2019-04-05T14:53:00.781Z,10.50
2019-04-05T14:55:35.487Z,10.69
2019-04-05T14:58:06.573Z,10.79
2019-04-05T15:00:35.684Z,10.98
2019-04-05T15:03:04.773Z,10.86
2019-04-05T15:05:35.315Z,10.79
2019-04-05T15:08:04.357Z,10.78
2019-04-05T15:10:35.935Z,10.92
2019-04-05T15:13:05.045Z,10.89
2019-04-05T15:15:34.195Z,10.96
2019-04-05T15:18:03.335Z,11.22
2019-04-05T15:20:36.211Z,11.01
2019-04-05T15:23:09.447Z,11.04
2019-04-05T15:25:37.481Z,10.87
2019-04-05T15:28:06.577Z,10.99
2019-04-05T15:30:37.262Z,11.18
2019-04-05T15:33:06.848Z,11.06
2019-04-05T15:35:35.981Z,11.20
2019-04-05T15:38:09.475Z,11.32
2019-04-05T15:40:38.595Z,11.17
2019-04-05T15:43:07.721Z,11.14
2019-04-05T15:45:38.413Z,11.19
2019-04-05T15:48:14.167Z,11.13
2019-04-05T15:50:40.917Z,10.96
2019-04-05T15:53:11.670Z,10.95
2019-04-05T15:55:48.715Z,11.07
2019-04-05T15:58:18.013Z,11.32
2019-04-05T16:00:47.646Z,11.21
2019-04-05T16:03:19.187Z,11.46
2019-04-05T16:05:49.339Z,10.97
2019-04-05T16:08:19.335Z,11.11
2019-04-05T16:10:48.465Z,11.20
2019-04-05T16:13:19.274Z,11.19
2019-04-05T16:15:48.432Z,11.27
2019-04-05T16:18:17.596Z,11.40
2019-04-05T16:20:46.714Z,11.20
2019-04-05T16:23:17.114Z,11.09
2019-04-05T16:25:46.189Z,11.16
2019-04-05T16:28:15.330Z,11.29
2019-04-05T16:30:46.976Z,11.22
2019-04-05T16:33:17.273Z,11.27
2019-04-05T16:35:47.342Z,11.17
2019-04-05T16:38:17.978Z,11.10
2019-04-05T16:40:48.544Z,11.24
2019-04-05T16:43:17.619Z,11.23
2019-04-05T16:45:48.638Z,11.15
2019-04-05T16:48:19.594Z,11.14
2019-04-05T16:50:49.792Z,11.09
2019-04-05T16:53:18.900Z,11.12
2019-04-05T16:55:49.778Z,11.19
2019-04-05T16:58:20.229Z,11.11
2019-04-05T17:00:49.428Z,10.99
2019-04-05T17:03:24.461Z,10.89
2019-04-05T17:05:58.503Z,11.03
2019-04-05T17:08:35.472Z,11.25
2019-04-05T17:11:09.423Z,11.26
2019-04-05T17:13:41.023Z,11.09
2019-04-05T17:16:12.418Z,11.24
2019-04-05T17:18:44.144Z,10.99
2019-04-05T17:21:14.757Z,11.16
2019-04-05T17:23:44.280Z,11.18
2019-04-05T17:26:14.895Z,11.28
2019-04-05T17:28:44.044Z,11.30
2019-04-05T17:31:16.383Z,11.32
2019-04-05T17:33:45.478Z,11.10
2019-04-05T17:36:14.586Z,10.97
2019-04-05T17:38:43.658Z,10.97
2019-04-05T17:41:12.855Z,10.92
2019-04-05T17:43:46.642Z,9.22
2019-04-05T17:46:18.798Z,10.96
2019-04-05T17:48:48.995Z,11.02
2019-04-05T17:51:18.255Z,11.01
2019-04-05T17:53:48.866Z,11.12
2019-04-05T17:56:19.997Z,11.05
2019-04-05T17:58:52.021Z,11.24
2019-04-05T18:01:21.195Z,11.20
2019-04-05T18:03:50.270Z,11.14
2019-04-05T18:06:20.164Z,11.22
2019-04-05T18:08:49.323Z,11.20
2019-04-05T18:11:19.322Z,11.25
2019-04-05T18:13:48.441Z,11.23
2019-04-05T18:16:17.517Z,11.10
2019-04-05T18:18:46.636Z,11.05
2019-04-05T18:21:15.703Z,11.09
2019-04-05T18:23:46.538Z,11.14
2019-04-05T18:26:18.487Z,11.09
2019-04-05T18:28:53.526Z,11.02
2019-04-05T18:31:27.048Z,11.06
2019-04-05T18:33:56.148Z,11.03
2019-04-05T18:36:25.236Z,10.87
2019-04-05T18:38:57.096Z,10.98
2019-04-05T18:41:26.582Z,11.07
2019-04-05T18:43:55.724Z,11.00
2019-04-05T18:46:27.700Z,10.92
2019-04-05T18:48:59.751Z,10.94
2019-04-05T18:51:28.864Z,10.89
2019-04-05T18:54:00.886Z,10.90
2019-04-05T18:56:31.521Z,10.93
2019-04-05T18:59:02.123Z,10.91
2019-04-05T19:01:33.343Z,10.98
2019-04-05T19:04:08.213Z,11.07
2019-04-05T19:06:37.508Z,11.21
2019-04-05T19:09:11.598Z,11.34
2019-04-05T19:11:39.563Z,11.33
2019-04-05T19:14:08.778Z,11.37
2019-04-05T19:16:38.017Z,11.31
2019-04-05T19:19:08.659Z,11.13
2019-04-05T19:21:41.736Z,11.05
2019-04-05T19:24:12.575Z,11.14
2019-04-05T19:26:43.228Z,11.12
2019-04-05T19:29:12.378Z,10.98
2019-04-05T19:49:33.703Z,11.41
2019-04-05T19:52:02.924Z,11.40
2019-04-05T19:54:32.936Z,11.36
2019-04-05T19:57:02.065Z,11.41
2019-04-05T19:59:31.134Z,11.35
2019-04-05T20:02:01.747Z,11.31
2019-04-05T20:04:35.635Z,11.40
2019-04-05T20:07:07.719Z,11.66
2019-04-05T20:09:38.394Z,11.64
2019-04-05T20:12:07.493Z,11.76
2019-04-05T20:14:38.393Z,11.72
2019-04-05T20:17:07.497Z,11.69
2019-04-05T20:19:36.619Z,11.79
2019-04-05T20:22:07.562Z,11.71
2019-04-05T20:24:36.659Z,11.68
2019-04-05T20:27:07.232Z,11.85
2019-04-05T20:29:37.987Z,11.85
2019-04-05T20:32:12.307Z,11.76
2019-04-05T20:34:41.448Z,11.84
2019-04-05T20:37:13.174Z,11.88
2019-04-05T20:39:42.284Z,11.76
2019-04-05T20:42:11.410Z,11.92
2019-04-05T20:44:41.986Z,11.90
2019-04-05T20:47:14.250Z,11.88
2019-04-05T20:49:43.341Z,12.01
2019-04-05T20:52:12.458Z,12.15
2019-04-05T20:54:41.570Z,12.27
2019-04-05T20:57:13.755Z,12.23
2019-04-05T20:59:44.595Z,12.30
2019-04-05T21:02:13.674Z,12.13
2019-04-05T21:04:42.786Z,12.00
2019-04-05T21:07:11.888Z,12.13
2019-04-05T21:09:41.117Z,12.04
2019-04-05T21:12:13.560Z,12.33
2019-04-05T21:14:44.986Z,12.27
2019-04-05T21:17:14.487Z,12.56
2019-04-05T21:19:48.430Z,12.30
2019-04-05T21:22:19.082Z,11.90
2019-04-05T21:24:49.485Z,11.96
2019-04-05T21:27:40.061Z,12.10
2019-04-05T21:30:09.400Z,12.15
2019-04-05T21:32:39.815Z,11.97
2019-04-05T21:35:08.906Z,11.82
2019-04-05T21:37:39.746Z,11.82
2019-04-05T21:40:08.968Z,11.90
2019-04-05T21:42:39.602Z,11.93
2019-04-05T21:45:10.472Z,12.13
2019-04-05T21:47:44.118Z,11.88
2019-04-05T21:50:17.031Z,11.10
2019-04-05T21:52:47.381Z,12.03
2019-04-05T21:55:24.443Z,12.20
2019-04-05T21:57:55.395Z,12.39
2019-04-05T22:00:27.569Z,12.54
2019-04-05T22:02:59.114Z,12.48
2019-04-05T22:05:29.176Z,12.58
2019-04-05T22:07:59.813Z,12.47
2019-04-05T22:10:31.211Z,12.39
2019-04-05T22:13:00.338Z,11.97
2019-04-05T22:15:29.881Z,12.39
2019-04-05T22:17:59.937Z,12.41
2019-04-05T22:20:30.799Z,12.41
2019-04-05T22:23:01.623Z,12.39
2019-04-05T22:25:30.685Z,12.49
2019-04-05T22:27:59.734Z,12.43
2019-04-05T22:30:28.821Z,11.99
2019-04-05T22:32:57.933Z,12.29
2019-04-05T22:35:32.155Z,12.38
2019-04-05T22:38:01.746Z,12.22
2019-04-05T22:40:37.152Z,12.38
2019-04-05T22:43:12.257Z,12.02
2019-04-05T22:45:43.397Z,11.44
2019-04-05T22:48:19.147Z,11.76
2019-04-05T22:50:52.723Z,12.10
2019-04-05T22:53:22.885Z,12.26
2019-04-05T22:55:53.818Z,11.96
2019-04-05T22:58:31.879Z,11.62
2019-04-05T23:01:06.010Z,11.82
2019-04-05T23:03:35.048Z,11.96
2019-04-05T23:06:04.141Z,12.01
2019-04-05T23:08:33.191Z,12.23
2019-04-05T23:11:03.801Z,11.96
2019-04-05T23:13:33.216Z,11.78
2019-04-05T23:16:06.843Z,11.77
2019-04-05T23:18:38.939Z,12.04
2019-04-05T23:21:08.007Z,11.40
2019-04-05T23:23:40.951Z,2.58
2019-04-05T23:26:17.494Z,11.73
2019-04-05T23:28:48.051Z,11.66
2019-04-05T23:31:22.743Z,11.45
2019-04-05T23:33:51.881Z,11.69
2019-04-05T23:36:25.355Z,11.69
2019-04-05T23:38:54.515Z,11.71
2019-04-05T23:41:23.597Z,11.58
2019-04-05T23:43:52.651Z,10.93
2019-04-05T23:46:21.781Z,10.73
2019-04-05T23:48:50.856Z,11.14
2019-04-05T23:51:19.896Z,10.99
2019-04-05T23:53:48.972Z,11.11
2019-04-05T23:56:18.049Z,10.67
2019-04-05T23:58:48.648Z,10.89
